Time;durP1;ratioP1;P1;durP2;ratioP2;P2;SDS_P1;SDS_P2;PMS_P1;PMS_P2;Temp;Humidity;BMP_temperature;BMP_pressure;BME280_temperature;BME280_humidity;BME280_pressure;Samples;Min_cycle;Max_cycle;Signal;HPM_P1;HPM_P2
2022/12/19 00:02:10;;;;;;;545.55;241.80;;;-0.20;99.90;;;;;;5076870;28;20028;-76
2022/12/19 00:04:36;;;;;;;519.92;224.98;;;-0.20;99.90;;;;;;5075803;28;20048;-75
2022/12/19 00:07:02;;;;;;;487.13;219.88;;;-0.10;99.90;;;;;;5074842;28;20451;-75
2022/12/19 00:09:28;;;;;;;506.63;226.38;;;-0.30;99.90;;;;;;5075867;28;20025;-76
2022/12/19 00:11:54;;;;;;;508.88;216.80;;;-0.20;99.90;;;;;;5075972;28;20024;-78
2022/12/19 00:14:20;;;;;;;424.17;178.07;;;-0.30;99.90;;;;;;5076888;28;20024;-77
2022/12/19 00:16:45;;;;;;;415.05;179.63;;;-0.30;99.90;;;;;;5076264;28;20028;-79
2022/12/19 00:19:11;;;;;;;432.73;180.88;;;-0.30;99.90;;;;;;5075723;28;20071;-77
2022/12/19 00:21:38;;;;;;;443.75;190.77;;;-0.30;99.90;;;;;;5075758;28;20496;-78
2022/12/19 00:24:06;;;;;;;416.58;174.27;;;-0.40;99.90;;;;;;5075086;28;20451;-76
2022/12/19 00:26:34;;;;;;;450.60;189.82;;;-0.30;99.90;;;;;;5069087;28;20028;-78
2022/12/19 00:29:06;;;;;;;396.33;165.10;;;-0.30;99.90;;;;;;5074555;28;20030;-77
2022/12/19 00:31:34;;;;;;;441.73;182.60;;;-0.30;99.90;;;;;;5074261;28;20417;-79
2022/12/19 00:34:00;;;;;;;416.23;171.05;;;-0.30;99.90;;;;;;5074625;28;20031;-76
2022/12/19 00:36:28;;;;;;;448.63;195.38;;;-0.30;99.90;;;;;;5075280;28;20024;-78
2022/12/19 00:38:56;;;;;;;440.75;195.80;;;-0.20;99.90;;;;;;5075242;28;20102;-77
2022/12/19 00:41:23;;;;;;;446.27;187.85;;;-0.20;99.90;;;;;;5073880;28;20090;-76
2022/12/19 00:43:56;;;;;;;426.33;179.35;;;-0.10;99.90;;;;;;5074774;28;20440;-75
2022/12/19 00:46:22;;;;;;;369.02;147.35;;;-0.10;99.90;;;;;;5074487;28;20036;-77
2022/12/19 00:48:48;;;;;;;351.67;144.13;;;0.00;99.90;;;;;;5073020;28;20055;-76
2022/12/19 00:51:20;;;;;;;336.13;132.02;;;0.00;99.90;;;;;;5073496;28;20052;-77
2022/12/19 00:53:46;;;;;;;;;;;0.10;99.90;;;;;;5075017;28;20052;-75
2022/12/19 00:56:17;;;;;;;344.50;133.95;;;0.10;99.90;;;;;;5075504;28;19904;-79
2022/12/19 00:58:43;;;;;;;266.73;107.93;;;0.20;99.90;;;;;;5056043;28;20025;-76
2022/12/19 01:01:20;;;;;;;327.10;132.82;;;0.20;99.90;;;;;;5055695;28;20025;-77
2022/12/19 01:03:46;;;;;;;342.90;137.00;;;0.20;99.90;;;;;;5111315;28;20031;-76
2022/12/19 01:06:12;;;;;;;335.77;136.63;;;0.20;99.90;;;;;;5094685;28;20022;-77
2022/12/19 01:08:38;;;;;;;367.55;148.05;;;0.30;99.90;;;;;;5095573;28;20417;-78
2022/12/19 01:11:05;;;;;;;317.08;126.47;;;0.30;99.90;;;;;;5088715;28;20028;-79
2022/12/19 01:13:32;;;;;;;295.48;118.10;;;0.30;99.90;;;;;;5079221;28;20083;-80
2022/12/19 01:16:03;;;;;;;276.50;114.72;;;0.30;99.90;;;;;;5077412;28;20047;-78
2022/12/19 01:18:29;;;;;;;278.08;110.97;;;0.40;99.90;;;;;;5095535;28;20036;-78
2022/12/19 01:21:01;;;;;;;250.90;91.53;;;0.40;99.90;;;;;;5095306;28;20031;-77
2022/12/19 01:23:27;;;;;;;235.85;89.15;;;0.50;99.90;;;;;;5095765;28;20508;-76
2022/12/19 01:25:54;;;;;;;243.43;97.25;;;0.50;99.90;;;;;;5095465;28;20024;-74
2022/12/19 01:28:20;;;;;;;258.70;101.22;;;0.50;99.90;;;;;;5095734;28;20022;-74
2022/12/19 01:30:46;;;;;;;270.20;104.00;;;0.60;99.90;;;;;;5089125;28;20028;-76
2022/12/19 01:33:14;;;;;;;264.55;96.25;;;0.50;99.90;;;;;;5074894;28;20036;-74
2022/12/19 01:35:41;;;;;;;255.55;94.65;;;0.60;99.90;;;;;;5075424;28;20020;-80
2022/12/19 01:38:12;;;;;;;262.52;96.32;;;0.70;99.90;;;;;;5073647;28;20107;-76
2022/12/19 01:40:38;;;;;;;247.73;95.63;;;0.70;99.90;;;;;;5073938;28;20052;-79
2022/12/19 01:43:05;;;;;;;232.05;88.50;;;0.70;99.90;;;;;;5075008;28;20114;-78
2022/12/19 01:45:32;;;;;;;224.65;86.53;;;0.70;99.90;;;;;;5074828;28;20028;-76
2022/12/19 01:48:24;;;;;;;225.77;84.97;;;0.70;99.90;;;;;;5073684;28;20116;-76
2022/12/19 01:50:55;;;;;;;237.05;90.20;;;0.80;99.90;;;;;;5074867;28;20082;-78
2022/12/19 01:53:24;;;;;;;242.20;90.38;;;0.80;99.90;;;;;;5074289;28;20430;-78
2022/12/19 01:55:50;;;;;;;186.85;72.03;;;0.80;99.90;;;;;;5072772;28;20511;-77
2022/12/19 01:58:17;;;;;;;201.73;76.20;;;0.80;99.90;;;;;;5073997;28;20119;-75
2022/12/19 02:00:44;;;;;;;194.93;75.30;;;0.90;99.90;;;;;;5073140;28;20027;-78
2022/12/19 02:03:30;;;;;;;183.45;71.10;;;0.90;99.90;;;;;;5074028;28;20043;-79
2022/12/19 02:05:58;;;;;;;175.40;67.13;;;0.90;99.90;;;;;;5069157;28;20040;-77
2022/12/19 02:08:26;;;;;;;190.75;70.80;;;0.90;99.90;;;;;;5074032;28;20042;-77
2022/12/19 02:10:52;;;;;;;164.30;66.07;;;0.90;99.90;;;;;;5074359;28;20024;-77
2022/12/19 02:13:19;;;;;;;154.65;61.67;;;0.90;99.90;;;;;;5072235;28;20349;-76
2022/12/19 02:15:53;;;;;;;173.43;62.65;;;0.90;99.90;;;;;;5073993;28;20077;-76
2022/12/19 02:18:43;;;;;;;160.95;59.47;;;0.90;99.90;;;;;;5073547;28;20043;-76
2022/12/19 02:21:29;;;;;;;159.88;59.50;;;1.00;99.90;;;;;;5073725;28;20038;-76
2022/12/19 02:24:16;;;;;;;143.77;54.65;;;1.00;99.90;;;;;;5073276;28;20032;-76
2022/12/19 02:26:56;;;;;;;159.60;58.50;;;1.00;99.90;;;;;;5073664;28;20363;-78
2022/12/19 02:29:37;;;;;;;135.63;52.53;;;1.00;99.90;;;;;;5073456;28;20052;-78
2022/12/19 02:32:16;;;;;;;130.63;51.23;;;1.00;99.90;;;;;;5067969;28;20107;-76
2022/12/19 02:34:55;;;;;;;126.05;54.60;;;1.00;99.90;;;;;;5073373;28;20070;-75
2022/12/19 02:37:31;;;;;;;138.38;55.33;;;1.00;99.90;;;;;;5073547;28;20035;-79
2022/12/19 02:40:09;;;;;;;157.32;56.92;;;1.00;99.90;;;;;;5073829;28;20471;-78
2022/12/19 02:42:40;;;;;;;172.02;61.08;;;1.00;99.90;;;;;;5071792;28;20054;-77
2022/12/19 02:45:10;;;;;;;141.43;57.07;;;1.00;99.90;;;;;;5072237;28;20336;-76
2022/12/19 02:47:36;;;;;;;141.95;55.42;;;1.00;99.90;;;;;;5073234;28;20296;-76
2022/12/19 02:50:03;;;;;;;146.38;57.15;;;1.00;99.90;;;;;;5072200;28;20103;-77
2022/12/19 02:52:28;;;;;;;146.13;57.72;;;1.00;99.90;;;;;;5073354;28;20184;-75
2022/12/19 02:55:17;;;;;;;138.90;56.10;;;1.00;99.90;;;;;;5072833;28;20103;-79
2022/12/19 02:58:15;;;;;;;176.15;60.28;;;1.00;99.90;;;;;;5072851;28;20087;-77
2022/12/19 03:01:24;;;;;;;147.85;55.55;;;1.10;99.90;;;;;;5072296;28;20103;-77
2022/12/19 03:04:27;;;;;;;118.97;45.88;;;1.00;99.90;;;;;;5071217;28;20028;-79
2022/12/19 03:07:01;;;;;;;;;;;1.00;99.90;;;;;;5072463;28;20024;-75
2022/12/19 03:09:44;;;;;;;131.85;45.40;;;1.00;99.90;;;;;;5073089;28;19951;-76
2022/12/19 03:12:17;;;;;;;104.45;40.03;;;0.90;99.90;;;;;;5073213;28;20020;-78
2022/12/19 03:14:45;;;;;;;123.20;42.33;;;1.00;99.90;;;;;;5076501;28;20024;-76
2022/12/19 03:17:10;;;;;;;156.88;50.65;;;0.90;99.90;;;;;;5075676;28;20448;-77
2022/12/19 03:19:39;;;;;;;147.75;49.42;;;0.90;99.90;;;;;;5077231;28;20040;-77
2022/12/19 03:22:06;;;;;;;139.25;48.45;;;0.90;99.90;;;;;;5076791;28;20033;-75
2022/12/19 03:24:32;;;;;;;134.32;49.05;;;0.90;99.90;;;;;;5076736;28;20407;-78
2022/12/19 03:27:29;;;;;;;128.63;46.35;;;0.90;99.90;;;;;;5075868;28;20107;-76
2022/12/19 03:30:05;;;;;;;115.32;45.38;;;0.90;99.90;;;;;;5076033;28;20033;-75
2022/12/19 03:32:33;;;;;;;131.95;50.35;;;0.90;99.90;;;;;;5072854;28;20035;-77
2022/12/19 03:35:10;;;;;;;120.30;44.83;;;0.90;99.90;;;;;;5075741;28;20047;-77
2022/12/19 03:37:39;;;;;;;121.78;46.45;;;0.90;99.90;;;;;;5077133;28;20091;-77
2022/12/19 03:40:16;;;;;;;134.48;51.30;;;0.90;99.90;;;;;;5076768;28;20024;-77
2022/12/19 03:45:58;;;;;;;119.72;49.72;;;0.80;99.90;;;;;;5072522;28;20027;-77
2022/12/19 03:48:31;;;;;;;139.18;51.53;;;0.80;99.90;;;;;;5068697;28;20040;-77
2022/12/19 03:51:25;;;;;;;139.18;50.78;;;0.80;99.90;;;;;;5076008;28;20071;-75
2022/12/19 03:54:09;;;;;;;129.10;49.92;;;0.80;99.90;;;;;;5076867;28;20051;-76
2022/12/19 03:56:48;;;;;;;126.68;49.17;;;0.80;99.90;;;;;;5076459;28;20025;-78
2022/12/19 03:59:53;;;;;;;111.78;44.70;;;0.70;99.90;;;;;;5076298;28;20071;-75
2022/12/19 04:02:20;;;;;;;117.03;43.83;;;0.70;99.90;;;;;;5075187;28;20074;-77
2022/12/19 04:04:52;;;;;;;101.63;37.67;;;0.70;99.90;;;;;;5076498;28;20122;-77
2022/12/19 04:07:19;;;;;;;93.28;38.75;;;0.70;99.90;;;;;;5076491;28;20062;-76
2022/12/19 04:09:46;;;;;;;98.57;38.92;;;0.70;99.90;;;;;;5076135;28;20024;-78
2022/12/19 04:12:17;;;;;;;91.38;38.10;;;0.70;99.90;;;;;;5076078;28;20051;-76
2022/12/19 04:14:43;;;;;;;86.70;34.37;;;0.70;99.90;;;;;;5074974;28;20027;-77
2022/12/19 04:17:24;;;;;;;80.63;34.33;;;0.70;99.90;;;;;;5075818;28;20059;-77
2022/12/19 04:19:59;;;;;;;81.57;34.33;;;0.60;99.90;;;;;;5074689;28;20073;-76
2022/12/19 04:22:34;;;;;;;81.55;31.85;;;0.60;99.90;;;;;;5074996;28;20024;-78
2022/12/19 04:25:02;;;;;;;77.13;33.30;;;0.60;99.90;;;;;;5074539;28;20024;-75
2022/12/19 04:27:31;;;;;;;75.15;33.97;;;0.60;99.90;;;;;;5067946;28;20024;-76
2022/12/19 04:29:59;;;;;;;74.10;31.88;;;0.50;99.90;;;;;;5075062;28;20021;-77
2022/12/19 04:32:28;;;;;;;78.75;31.77;;;0.50;99.90;;;;;;5076424;28;20020;-75
2022/12/19 04:34:54;;;;;;;80.38;33.90;;;0.50;99.90;;;;;;5075904;28;20013;-77
2022/12/19 04:37:20;;;;;;;85.03;35.42;;;0.50;99.90;;;;;;5075329;28;20020;-76
2022/12/19 04:39:45;;;;;;;89.68;36.17;;;0.50;99.90;;;;;;5076270;28;20103;-77
2022/12/19 04:42:11;;;;;;;79.50;35.28;;;0.50;99.90;;;;;;5074918;28;20040;-79
2022/12/19 04:44:37;;;;;;;81.28;35.35;;;0.40;99.90;;;;;;5076371;28;20017;-76
2022/12/19 04:47:03;;;;;;;81.53;36.05;;;0.40;99.90;;;;;;5075707;28;20024;-77
2022/12/19 04:49:29;;;;;;;82.90;34.72;;;0.40;99.90;;;;;;5076237;28;20031;-76
2022/12/19 04:51:54;;;;;;;85.53;37.70;;;0.40;99.90;;;;;;5075729;28;20047;-78
2022/12/19 04:54:20;;;;;;;93.90;36.83;;;0.40;99.90;;;;;;5075824;28;20394;-79
2022/12/19 04:56:46;;;;;;;88.20;37.25;;;0.40;99.90;;;;;;5075840;28;20017;-78
2022/12/19 04:59:12;;;;;;;86.97;36.50;;;0.40;99.90;;;;;;5075579;28;20032;-79
2022/12/19 05:01:38;;;;;;;86.55;37.17;;;0.30;99.90;;;;;;5075483;28;20460;-77
2022/12/19 05:04:03;;;;;;;90.85;37.83;;;0.30;99.90;;;;;;5075195;28;20032;-76
2022/12/19 05:06:29;;;;;;;103.95;42.03;;;0.30;99.90;;;;;;5068087;28;20456;-77
2022/12/19 05:08:55;;;;;;;135.48;52.65;;;0.30;99.90;;;;;;5075000;28;20063;-78
2022/12/19 05:11:21;;;;;;;106.03;47.42;;;0.30;99.90;;;;;;5075039;28;20024;-77
2022/12/19 05:13:48;;;;;;;117.05;49.50;;;0.20;99.90;;;;;;5074513;28;20020;-77
2022/12/19 05:16:14;;;;;;;111.07;50.15;;;0.20;99.90;;;;;;5075128;28;20028;-77
2022/12/19 05:18:40;;;;;;;114.85;54.83;;;0.20;99.90;;;;;;5074574;28;20116;-75
2022/12/19 05:21:07;;;;;;;120.85;52.92;;;0.20;99.90;;;;;;5073600;28;20035;-78
2022/12/19 05:23:33;;;;;;;114.50;48.65;;;0.20;99.90;;;;;;5074571;28;20052;-78
2022/12/19 05:26:00;;;;;;;121.03;48.22;;;0.20;99.90;;;;;;5074778;28;20021;-77
2022/12/19 05:28:27;;;;;;;112.82;46.53;;;0.20;99.90;;;;;;5074187;28;20410;-79
2022/12/19 05:31:02;;;;;;;99.22;43.72;;;0.20;99.90;;;;;;5074037;28;20366;-77
2022/12/19 05:33:28;;;;;;;116.97;50.45;;;0.20;99.90;;;;;;5074518;28;20037;-77
2022/12/19 05:35:54;;;;;;;112.88;49.92;;;0.20;99.90;;;;;;5072530;28;20164;-78
2022/12/19 05:38:19;;;;;;;109.50;48.72;;;0.20;99.90;;;;;;5074715;28;20016;-76
2022/12/19 05:40:45;;;;;;;115.47;51.65;;;0.20;99.90;;;;;;5073852;28;20016;-78
2022/12/19 05:43:11;;;;;;;126.32;55.38;;;0.20;99.90;;;;;;5073302;28;20032;-79
2022/12/19 05:45:38;;;;;;;121.10;55.25;;;0.20;99.90;;;;;;5074163;28;20123;-78
2022/12/19 05:48:04;;;;;;;123.80;55.83;;;0.20;99.90;;;;;;5074378;28;20040;-77
2022/12/19 05:50:30;;;;;;;120.20;57.38;;;0.20;99.90;;;;;;5074177;28;20025;-79
2022/12/19 05:52:56;;;;;;;120.80;56.13;;;0.20;99.90;;;;;;5074280;28;20032;-79
2022/12/19 05:55:22;;;;;;;132.50;57.72;;;0.20;99.90;;;;;;5074285;28;20021;-78
2022/12/19 05:57:47;;;;;;;131.85;60.53;;;0.20;99.90;;;;;;5073475;28;20364;-78
2022/12/19 06:00:15;;;;;;;135.88;58.72;;;0.20;99.90;;;;;;5073501;28;20103;-77
2022/12/19 06:02:40;;;;;;;123.65;53.88;;;0.20;99.90;;;;;;5074117;28;20112;-78
2022/12/19 06:05:07;;;;;;;117.95;51.45;;;0.20;99.90;;;;;;5074127;28;20096;-78
2022/12/19 06:07:33;;;;;;;118.80;51.40;;;0.10;99.90;;;;;;5073508;28;20024;-79
2022/12/19 06:09:59;;;;;;;126.75;54.10;;;0.10;99.90;;;;;;5072820;28;20016;-76
2022/12/19 06:12:25;;;;;;;133.02;60.00;;;0.10;99.90;;;;;;5072321;28;20032;-78
2022/12/19 06:14:50;;;;;;;131.90;59.50;;;0.10;99.90;;;;;;5073631;28;20094;-77
2022/12/19 06:17:16;;;;;;;124.05;54.35;;;0.10;99.90;;;;;;5071642;28;20020;-76
2022/12/19 06:19:42;;;;;;;137.05;60.28;;;0.00;99.90;;;;;;5073649;28;20025;-80
2022/12/19 06:22:08;;;;;;;129.02;56.17;;;0.10;99.90;;;;;;5072311;28;20047;-77
2022/12/19 06:24:35;;;;;;;145.25;61.53;;;0.00;99.90;;;;;;5073776;28;20438;-78
2022/12/19 06:27:01;;;;;;;148.73;62.83;;;0.00;99.90;;;;;;5072250;28;20463;-79
2022/12/19 06:29:26;;;;;;;161.00;66.55;;;0.00;99.90;;;;;;5073119;28;20051;-78
2022/12/19 06:31:52;;;;;;;165.98;68.43;;;0.00;99.90;;;;;;5073649;28;20063;-79
2022/12/19 06:34:18;;;;;;;169.60;75.82;;;0.00;99.90;;;;;;5072367;28;20020;-78
2022/12/19 06:36:44;;;;;;;198.27;83.97;;;0.00;99.90;;;;;;5072141;28;20024;-78
2022/12/19 06:39:13;;;;;;;203.70;88.95;;;0.00;99.90;;;;;;5074666;28;20065;-79
2022/12/19 06:44:23;;;;;;;206.23;85.15;;;0.10;99.90;;;;;;5074055;28;20031;-79
2022/12/19 06:46:50;;;;;;;221.68;93.05;;;0.10;99.90;;;;;;5072386;28;20020;-77
2022/12/19 06:49:16;;;;;;;199.35;87.93;;;0.10;99.90;;;;;;5074003;28;20016;-78
2022/12/19 06:51:42;;;;;;;193.10;82.55;;;0.10;99.90;;;;;;5073885;28;20020;-80
2022/12/19 06:54:12;;;;;;;182.57;79.90;;;0.10;99.90;;;;;;5072385;28;20023;-79
2022/12/19 06:56:40;;;;;;;172.85;76.35;;;0.20;99.90;;;;;;5074225;28;20094;-79
2022/12/19 06:59:08;;;;;;;184.13;79.47;;;0.20;99.90;;;;;;5074186;28;20031;-78
2022/12/19 07:01:45;;;;;;;197.23;81.57;;;0.30;99.90;;;;;;5073340;28;20482;-78
2022/12/19 07:04:14;;;;;;;212.13;87.80;;;0.50;99.90;;;;;;5074039;28;20438;-79
2022/12/19 07:06:40;;;;;;;211.68;87.20;;;0.80;99.90;;;;;;5073598;28;20021;-79
2022/12/19 07:09:06;;;;;;;235.35;98.80;;;1.10;99.90;;;;;;5073847;28;20020;-77
2022/12/19 07:11:32;;;;;;;217.82;90.95;;;1.30;99.90;;;;;;5072385;28;20043;-79
2022/12/19 07:13:58;;;;;;;206.43;88.43;;;1.40;99.90;;;;;;5072247;28;20020;-78
2022/12/19 07:16:24;;;;;;;250.13;103.50;;;1.60;99.90;;;;;;5073721;28;20017;-81
2022/12/19 07:18:50;;;;;;;311.55;124.82;;;1.70;99.90;;;;;;5073731;28;20179;-80
2022/12/19 07:21:16;;;;;;;217.25;90.97;;;1.80;99.90;;;;;;5073432;28;20453;-79
2022/12/19 07:23:42;;;;;;;198.30;85.57;;;1.70;99.90;;;;;;5073310;28;20037;-82
2022/12/19 07:26:08;;;;;;;180.93;76.30;;;1.90;99.90;;;;;;5072203;28;20115;-81
2022/12/19 07:28:35;;;;;;;111.45;48.97;;;1.70;99.90;;;;;;5072219;28;20120;-79
2022/12/19 07:31:01;;;;;;;122.60;52.03;;;1.70;99.90;;;;;;5072294;28;20016;-81
2022/12/19 07:33:26;;;;;;;110.03;48.47;;;1.70;99.90;;;;;;5073157;28;20028;-79
2022/12/19 07:35:52;;;;;;;114.70;47.17;;;1.70;99.90;;;;;;5072988;28;20055;-80
2022/12/19 07:38:18;;;;;;;95.15;41.83;;;1.70;99.90;;;;;;5072584;28;20017;-78
2022/12/19 07:40:44;;;;;;;120.03;51.35;;;1.70;99.90;;;;;;5073127;28;20100;-79
2022/12/19 07:43:09;;;;;;;116.03;49.72;;;1.90;99.90;;;;;;5071860;28;20035;-79
2022/12/19 07:45:37;;;;;;;98.05;43.28;;;1.90;99.90;;;;;;5072016;28;20021;-82
2022/12/19 07:48:04;;;;;;;108.63;45.83;;;2.00;99.90;;;;;;5073157;28;20099;-80
2022/12/19 07:50:30;;;;;;;105.07;43.88;;;2.10;99.90;;;;;;5071974;28;20395;-80
2022/12/19 07:52:57;;;;;;;101.78;41.47;;;2.10;99.90;;;;;;5072966;28;20025;-80
2022/12/19 07:55:23;;;;;;;89.15;39.22;;;2.10;99.90;;;;;;5072009;28;20021;-80
2022/12/19 07:57:49;;;;;;;99.68;42.50;;;1.90;99.90;;;;;;5071860;28;20024;-79
2022/12/19 08:00:15;;;;;;;97.72;41.25;;;1.80;99.90;;;;;;5075841;28;20043;-77
2022/12/19 08:02:41;;;;;;;107.07;44.83;;;1.60;99.90;;;;;;5077021;28;20237;-79
2022/12/19 08:05:08;;;;;;;111.20;45.70;;;1.60;99.90;;;;;;5077003;28;20032;-79
2022/12/19 08:07:33;;;;;;;106.78;44.67;;;1.90;99.90;;;;;;5076720;28;20028;-80
2022/12/19 08:09:59;;;;;;;103.72;43.90;;;2.00;99.90;;;;;;5076673;28;20061;-79
2022/12/19 08:12:25;;;;;;;113.10;45.08;;;2.00;99.90;;;;;;5076613;28;20028;-76
2022/12/19 08:14:51;;;;;;;110.13;44.75;;;2.00;99.90;;;;;;5076667;28;20032;-77
2022/12/19 08:17:18;;;;;;;97.00;40.28;;;2.30;99.90;;;;;;5076348;28;20016;-78
2022/12/19 08:19:43;;;;;;;108.07;45.65;;;2.40;99.90;;;;;;5076503;28;20027;-79
2022/12/19 08:22:09;;;;;;;98.72;41.97;;;2.10;99.90;;;;;;5075150;28;20107;-80
2022/12/19 08:24:35;;;;;;;110.13;44.95;;;2.20;99.90;;;;;;5075162;28;20028;-78
2022/12/19 08:27:01;;;;;;;112.45;46.47;;;2.20;99.90;;;;;;5076294;28;20021;-79
2022/12/19 08:29:27;;;;;;;208.60;94.13;;;2.30;99.90;;;;;;5076551;28;20054;-80
2022/12/19 08:31:53;;;;;;;485.35;248.55;;;2.40;99.90;;;;;;5076134;28;20028;-78
2022/12/19 08:34:19;;;;;;;258.70;130.32;;;2.40;99.90;;;;;;5073425;28;20094;-79
2022/12/19 08:36:45;;;;;;;331.42;177.18;;;2.60;99.90;;;;;;5075263;28;20048;-78
2022/12/19 08:39:10;;;;;;;189.48;95.35;;;2.70;99.90;;;;;;5075039;28;20399;-79
2022/12/19 08:41:36;;;;;;;107.90;51.75;;;2.80;99.90;;;;;;5076351;28;20028;-79
2022/12/19 08:44:02;;;;;;;113.50;52.60;;;2.80;99.90;;;;;;5076072;28;20055;-79
2022/12/19 08:46:28;;;;;;;92.50;40.97;;;2.90;99.90;;;;;;5075810;28;20498;-77
2022/12/19 08:48:54;;;;;;;99.97;46.22;;;3.10;99.90;;;;;;5075692;28;20020;-79
2022/12/19 08:51:20;;;;;;;153.98;71.15;;;3.20;99.90;;;;;;5076159;28;20017;-79
2022/12/19 08:53:46;;;;;;;124.40;56.97;;;3.50;99.90;;;;;;5075512;28;20035;-79
2022/12/19 08:56:16;;;;;;;120.18;55.58;;;3.60;99.90;;;;;;5075873;28;20021;-81
2022/12/19 08:58:42;;;;;;;97.68;46.10;;;3.80;99.90;;;;;;5075796;28;20478;-79
2022/12/19 09:01:15;;;;;;;77.97;35.42;;;3.80;99.90;;;;;;5074728;28;20382;-80
2022/12/19 09:03:41;;;;;;;82.95;39.95;;;3.70;99.90;;;;;;5075843;28;20028;-80
2022/12/19 09:06:09;;;;;;;86.88;38.10;;;3.60;99.90;;;;;;5075668;28;20112;-78
2022/12/19 09:08:35;;;;;;;75.15;37.20;;;3.30;99.90;;;;;;5074559;28;20025;-80
2022/12/19 09:11:07;;;;;;;88.47;38.95;;;3.10;99.90;;;;;;5072618;28;20025;-81
2022/12/19 09:13:33;;;;;;;106.80;46.05;;;3.00;99.90;;;;;;5074093;28;20082;-80
2022/12/19 09:16:06;;;;;;;91.47;39.47;;;2.90;99.90;;;;;;5073226;28;20032;-79
2022/12/19 09:18:32;;;;;;;101.20;44.55;;;2.70;99.90;;;;;;5074407;28;20124;-80
2022/12/19 09:20:58;;;;;;;93.80;43.42;;;2.70;99.90;;;;;;5074684;28;20021;-80
2022/12/19 09:23:26;;;;;;;109.13;50.50;;;2.70;99.90;;;;;;5073782;28;20123;-81
2022/12/19 09:25:56;;;;;;;111.70;51.60;;;2.80;99.90;;;;;;5074030;28;20418;-79
2022/12/19 09:28:22;;;;;;;94.93;46.53;;;2.90;99.90;;;;;;5075212;28;20443;-81
2022/12/19 09:30:58;;;;;;;115.20;58.58;;;2.90;99.90;;;;;;5075247;28;20025;-80
2022/12/19 09:33:25;;;;;;;89.18;38.22;;;2.90;99.90;;;;;;5073796;28;20035;-79
2022/12/19 09:35:52;;;;;;;93.95;43.05;;;3.00;99.90;;;;;;5075074;28;20020;-79
2022/12/19 09:38:19;;;;;;;86.20;39.40;;;3.30;99.90;;;;;;5075126;28;20024;-79
2022/12/19 09:40:56;;;;;;;100.63;40.75;;;3.60;99.90;;;;;;5073390;28;20111;-81
2022/12/19 09:43:57;;;;;;;127.93;56.08;;;3.60;99.90;;;;;;5075118;28;20028;-82
2022/12/19 09:46:29;;;;;;;91.88;40.58;;;3.90;99.90;;;;;;5075085;28;20090;-83
2022/12/19 09:48:56;;;;;;;105.32;45.53;;;3.90;99.90;;;;;;5073519;28;20452;-81
2022/12/19 09:51:35;;;;;;;93.25;39.85;;;3.90;99.90;;;;;;5073656;28;20407;-82
2022/12/19 09:54:12;;;;;;;87.57;39.28;;;3.80;99.90;;;;;;5073713;28;20027;-80
2022/12/19 09:56:41;;;;;;;301.15;93.57;;;3.70;99.90;;;;;;5075022;28;20026;-80
2022/12/19 09:59:27;;;;;;;184.50;71.28;;;3.70;99.90;;;;;;5074730;28;20017;-81
2022/12/19 10:02:11;;;;;;;95.20;39.97;;;3.60;99.90;;;;;;5073232;28;20028;-81
2022/12/19 10:04:40;;;;;;;123.90;51.75;;;3.40;99.90;;;;;;5074631;28;20353;-81
2022/12/19 10:07:08;;;;;;;95.47;41.28;;;3.40;99.90;;;;;;5073226;28;20021;-81
2022/12/19 10:09:35;;;;;;;115.10;48.75;;;3.50;99.90;;;;;;5073119;28;20044;-81
2022/12/19 10:12:24;;;;;;;196.77;70.32;;;3.50;99.90;;;;;;5073205;28;20421;-81
2022/12/19 10:14:58;;;;;;;86.43;39.55;;;3.60;99.90;;;;;;5074288;28;20123;-83
2022/12/19 10:17:35;;;;;;;82.55;37.53;;;3.60;99.90;;;;;;5074197;28;20044;-81
2022/12/19 10:20:13;;;;;;;81.72;37.60;;;3.60;99.90;;;;;;5073142;28;20113;-80
2022/12/19 10:23:03;;;;;;;81.82;39.33;;;3.60;99.90;;;;;;5072500;28;20495;-81
2022/12/19 10:26:17;;;;;;;106.43;45.65;;;3.60;99.90;;;;;;5074374;28;20052;-80
2022/12/19 10:29:18;;;;;;;96.78;44.80;;;3.70;99.90;;;;;;5046719;28;20035;-82
2022/12/19 10:31:58;;;;;;;97.10;40.97;;;3.80;99.90;;;;;;5069212;28;20032;-81
2022/12/19 10:34:38;;;;;;;128.52;64.00;;;3.60;99.90;;;;;;5073841;28;20013;-80
2022/12/19 10:37:16;;;;;;;123.80;59.58;;;3.60;99.90;;;;;;5072617;28;20016;-79
2022/12/19 10:39:45;;;;;;;163.82;76.20;;;3.60;99.90;;;;;;5074152;28;20017;-81
2022/12/19 10:42:18;;;;;;;275.88;124.20;;;3.60;99.90;;;;;;5073658;28;20028;-80
2022/12/19 10:44:46;;;;;;;161.48;75.43;;;3.70;99.90;;;;;;5073632;28;20451;-81
2022/12/19 10:47:16;;;;;;;108.88;47.95;;;3.80;99.90;;;;;;5074002;28;20024;-80
2022/12/19 10:49:42;;;;;;;134.20;62.92;;;3.80;99.90;;;;;;5072586;28;20024;-79
2022/12/19 10:52:10;;;;;;;106.32;47.08;;;3.80;99.90;;;;;;5073832;28;20025;-78
2022/12/19 10:54:38;;;;;;;127.25;58.65;;;3.70;99.90;;;;;;5073869;28;20021;-81
2022/12/19 10:57:25;;;;;;;102.85;47.75;;;3.80;99.90;;;;;;5074033;28;20028;-81
2022/12/19 11:00:08;;;;;;;155.98;76.53;;;3.70;99.90;;;;;;5071969;28;20020;-82
2022/12/19 11:02:37;;;;;;;156.85;68.47;;;3.90;99.90;;;;;;5073411;28;20055;-81
2022/12/19 11:05:18;;;;;;;110.63;50.40;;;3.90;99.90;;;;;;5073213;28;20075;-81
2022/12/19 11:08:22;;;;;;;119.73;60.90;;;4.00;99.90;;;;;;5073961;28;20016;-79
2022/12/19 11:10:51;;;;;;;119.05;60.25;;;4.00;99.90;;;;;;5065118;28;20062;-79
2022/12/19 11:13:25;;;;;;;137.40;62.25;;;4.10;99.90;;;;;;5073469;28;20036;-80
2022/12/19 11:16:02;;;;;;;128.35;64.97;;;4.30;99.90;;;;;;5072499;28;20448;-80
2022/12/19 11:18:40;;;;;;;96.80;46.65;;;4.60;99.90;;;;;;5073268;28;20044;-80
2022/12/19 11:21:28;;;;;;;85.72;40.80;;;5.20;99.90;;;;;;5073463;28;20025;-79
2022/12/19 11:23:59;;;;;;;109.38;56.30;;;5.30;99.90;;;;;;5072209;28;20103;-80
2022/12/19 11:26:43;;;;;;;79.55;41.30;;;5.40;99.90;;;;;;5072525;28;20031;-79
2022/12/19 11:29:39;;;;;;;85.47;41.55;;;5.40;99.90;;;;;;5073371;28;20058;-79
2022/12/19 11:32:37;;;;;;;132.98;62.92;;;5.20;99.90;;;;;;5073587;28;20020;-78
2022/12/19 11:35:13;;;;;;;116.57;59.85;;;5.10;99.90;;;;;;5076053;28;20025;-80
2022/12/19 11:38:00;;;;;;;78.28;36.45;;;5.00;99.90;;;;;;5076166;28;20021;-78
2022/12/19 11:40:35;;;;;;;86.35;39.88;;;4.90;99.90;;;;;;5076051;28;20115;-80
2022/12/19 11:43:10;;;;;;;109.10;49.10;;;4.80;99.90;;;;;;5076041;28;20058;-79
2022/12/19 11:45:48;;;;;;;94.57;41.97;;;4.80;99.90;;;;;;5076072;28;20149;-78
2022/12/19 11:48:20;;;;;;;100.95;49.15;;;4.60;99.90;;;;;;5076899;28;20044;-79
2022/12/19 11:51:02;;;;;;;106.07;51.88;;;4.70;99.90;;;;;;5076982;28;20444;-78
2022/12/19 11:53:33;;;;;;;112.68;53.80;;;4.70;99.90;;;;;;5077143;28;20513;-79
2022/12/19 11:56:10;;;;;;;100.75;49.03;;;4.80;99.90;;;;;;5077284;28;20031;-79
2022/12/19 11:58:36;;;;;;;100.93;46.97;;;4.80;99.90;;;;;;5076876;28;20477;-78
2022/12/19 12:01:35;;;;;;;109.15;51.17;;;4.80;99.90;;;;;;5075580;28;20024;-79
2022/12/19 12:04:16;;;;;;;99.88;47.63;;;5.00;99.90;;;;;;5077281;28;20051;-78
2022/12/19 12:06:53;;;;;;;69.20;29.10;;;4.80;99.90;;;;;;5076863;28;20544;-79
2022/12/19 12:09:46;;;;;;;96.57;41.13;;;4.70;99.90;;;;;;5076592;28;20071;-79
2022/12/19 12:12:30;;;;;;;84.55;37.45;;;4.80;99.90;;;;;;5076521;28;20375;-79
2022/12/19 12:15:32;;;;;;;62.40;29.25;;;4.90;99.90;;;;;;5076624;28;20465;-79
2022/12/19 12:18:38;;;;;;;67.60;33.53;;;4.90;99.90;;;;;;5076566;28;20049;-80
2022/12/19 12:21:23;;;;;;;72.53;33.95;;;4.80;99.90;;;;;;5076773;28;20337;-81
2022/12/19 12:24:02;;;;;;;77.00;34.10;;;4.80;99.90;;;;;;5076447;28;20051;-80
2022/12/19 12:26:36;;;;;;;69.15;34.70;;;4.80;99.90;;;;;;5075513;28;20078;-80
2022/12/19 12:29:24;;;;;;;169.10;77.82;;;4.80;99.90;;;;;;5076133;28;20456;-79
2022/12/19 12:32:34;;;;;;;133.70;60.35;;;4.80;99.90;;;;;;5075333;28;20028;-81
2022/12/19 12:35:19;;;;;;;201.88;79.35;;;4.80;99.90;;;;;;5060661;28;20093;-80
2022/12/19 12:38:18;;;;;;;241.18;103.38;;;4.80;99.90;;;;;;5075922;28;20414;-80
2022/12/19 12:40:55;;;;;;;235.27;98.70;;;4.90;99.90;;;;;;5075996;28;20415;-82
2022/12/19 12:43:54;;;;;;;175.50;83.88;;;5.00;99.90;;;;;;5076232;28;20060;-81
2022/12/19 12:46:25;;;;;;;75.95;36.78;;;5.10;99.90;;;;;;5076295;28;20056;-79
2022/12/19 12:48:54;;;;;;;75.68;35.28;;;4.90;99.90;;;;;;5076234;28;20017;-80
2022/12/19 12:51:23;;;;;;;92.63;45.13;;;4.90;99.90;;;;;;5075972;28;20024;-80
2022/12/19 12:53:52;;;;;;;82.25;42.92;;;4.90;99.90;;;;;;5076311;28;20033;-80
2022/12/19 12:56:18;;;;;;;83.43;39.30;;;4.90;99.90;;;;;;5076148;28;20020;-81
2022/12/19 12:58:47;;;;;;;110.55;50.65;;;5.00;99.90;;;;;;5075583;28;20032;-81